• Join FlightAware (Why Join?)
  • Login
  • US Flag 
12:37PM EDT


 

Airport Tracker/Info


-or-


 

Live Flight TrackerFlight Track Log ✈ EJM42 ✈ 19-Jul-2013 ✈ LGKR / CFU - KPWM

Flight Track Log - Related Links

Times and Time Zones

All times are in EDT time to prevent confusion due to time zone crossing. See the EJM42 flight status page for this flight to view local times or setup timezone preferences in your user account.

Time Position Orientation Groundspeed Altitude Reporting Facility
EDT Latitude Longitude Course Direction KTS MPH feet Rate Location/Type
12:08PM 50.9646 -16.3913 306° West  Level Estimated
12:09PM 50.9870 -16.5940 280° West  Level Estimated
12:10PM 51.0091 -16.7968 280° West  Level Estimated
12:11PM 51.0308 -16.9999 280° West  Level Estimated
12:12PM 51.0522 -17.2031 280° West  Level Estimated
12:13PM 51.0732 -17.4066 279° West  Level Estimated
12:14PM 51.0939 -17.6102 279° West  Level Estimated
12:15PM 51.1142 -17.8140 279° West  Level Estimated
12:16PM 51.1342 -18.0180 279° West  Level Estimated
12:17PM 51.1538 -18.2221 279° West  Level Estimated
12:18PM 51.1731 -18.4265 279° West  Level Estimated
12:19PM 51.1920 -18.6310 278° West  Level Estimated
12:20PM 51.2105 -18.8356 278° West  Level Estimated
12:21PM 51.2287 -19.0404 278° West  Level Estimated
12:22PM 51.2465 -19.2454 278° West  Level Estimated
12:23PM 51.2640 -19.4506 278° West  Level Estimated
12:24PM 51.2811 -19.6559 278° West  Level Estimated
12:25PM 51.2979 -19.8613 278° West  Level Estimated
12:26PM 51.3142 -20.0669 277° West  Level Estimated
12:27PM 51.3303 -20.2727 277° West  Level Estimated
12:27PM 55.0000 -20.0000 284° West 492 566 43,000  Level ETMS Enhanced Traffic Management System
12:28PM 51.3459 -20.4786 277° West  Level Estimated
12:29PM 51.3613 -20.6846 277° West  Level Estimated
12:30PM 51.3762 -20.8908 277° West  Level Estimated
12:31PM 51.3908 -21.0970 277° West  Level Estimated
12:32PM 51.4050 -21.3035 276° West  Level Estimated
12:33PM 55.2527 -21.8626 283° West 492 566 43,000  Level FlightAware Transoceanic
12:34PM 55.2823 -22.0971 282° West 492 566 43,000  Level FlightAware Transoceanic
12:35PM 55.3114 -22.3319 282° West 492 566 43,000  Level FlightAware Transoceanic
12:36PM 55.3401 -22.5671 282° West 492 566 43,000  Level FlightAware Transoceanic
12:37PM 55.3683 -22.8025 282° West 492 566 43,000  Level FlightAware Transoceanic
12:38PM 55.3961 -23.0384 282° West 492 566 43,000  Level FlightAware Transoceanic
12:39PM 55.4234 -23.2745 281° West 492 566 43,000  Level FlightAware Transoceanic
12:40PM 55.4503 -23.5110 281° West 492 566 43,000  Level FlightAware Transoceanic
12:41PM 55.4767 -23.7478 281° West 492 566 43,000  Level FlightAware Transoceanic
12:42PM 55.5027 -23.9849 281° West 492 566 43,000  Level FlightAware Transoceanic
12:43PM 55.5282 -24.2223 281° West 492 566 43,000  Level FlightAware Transoceanic
12:44PM 55.5532 -24.4600 280° West 492 566 43,000  Level FlightAware Transoceanic
12:45PM 55.5778 -24.6980 280° West 492 566 43,000  Level FlightAware Transoceanic
12:46PM 55.6019 -24.9363 280° West 492 566 43,000  Level FlightAware Transoceanic
12:47PM 55.6255 -25.1750 280° West 492 566 43,000  Level FlightAware Transoceanic
12:48PM 55.6487 -25.4139 280° West 492 566 43,000  Level FlightAware Transoceanic
12:49PM 55.6714 -25.6530 279° West 492 566 43,000  Level FlightAware Transoceanic
12:50PM 55.6937 -25.8925 279° West 492 566 43,000  Level FlightAware Transoceanic
12:51PM 55.7155 -26.1322 279° West 492 566 43,000  Level FlightAware Transoceanic
12:52PM 55.7368 -26.3722 279° West 492 566 43,000  Level FlightAware Transoceanic
12:53PM 55.7577 -26.6124 279° West 492 566 43,000  Level FlightAware Transoceanic
12:54PM 55.7780 -26.8529 278° West 492 566 43,000  Level FlightAware Transoceanic
12:55PM 55.7980 -27.0937 278° West 492 566 43,000  Level FlightAware Transoceanic
12:56PM 55.8174 -27.3346 278° West 492 566 43,000  Level FlightAware Transoceanic
12:57PM 55.8364 -27.5759 278° West 492 566 43,000  Level FlightAware Transoceanic
12:58PM 55.8549 -27.8173 278° West 492 566 43,000  Level FlightAware Transoceanic
12:59PM 55.8729 -28.0590 277° West 492 566 43,000  Level FlightAware Transoceanic
01:00PM 55.8905 -28.3009 277° West 492 566 43,000  Level FlightAware Transoceanic
01:01PM 55.9075 -28.5430 277° West 492 566 43,000  Level FlightAware Transoceanic
01:02PM 55.9241 -28.7854 277° West 492 566 43,000  Level FlightAware Transoceanic
01:03PM 55.9403 -29.0279 277° West 492 566 43,000  Level FlightAware Transoceanic
01:04PM 55.9559 -29.2707 276° West 492 566 43,000  Level FlightAware Transoceanic
01:05PM 55.9711 -29.5136 276° West 492 566 43,000  Level FlightAware Transoceanic
01:06PM 55.9858 -29.7567 276° West 492 566 43,000  Level FlightAware Transoceanic
01:07PM 55.9993 -29.9871 276° West  Level FlightAware Approximate
01:08PM 56.0123 -30.2177 276° West  Level FlightAware Approximate
01:09PM 56.0077 -30.2054 274° West  Level FlightAware Approximate
01:09PM 56.0000 -30.0000 274° West 490 564 43,000  Level ETMS Enhanced Traffic Management System
01:10PM 56.0159 -30.4367 274° West  Level FlightAware Approximate
01:11PM 56.0238 -30.6681 274° West  Level FlightAware Approximate
01:12PM 56.0311 -30.8996 273° West  Level FlightAware Approximate
01:13PM 56.0381 -31.1312 273° West  Level FlightAware Approximate
01:14PM 56.0446 -31.3629 273° West  Level FlightAware Approximate
01:15PM 56.0635 -31.9479 273° West 490 564 43,000  Level FlightAware Transoceanic
01:16PM 56.0693 -32.1918 272° West 490 564 43,000  Level FlightAware Transoceanic
01:17PM 56.0746 -32.4357 272° West 490 564 43,000  Level FlightAware Transoceanic
01:18PM 56.0794 -32.6797 272° West 490 564 43,000  Level FlightAware Transoceanic
01:19PM 56.0838 -32.9238 272° West 490 564 43,000  Level FlightAware Transoceanic
01:20PM 56.0876 -33.1680 272° West 490 564 43,000  Level FlightAware Transoceanic
01:21PM 56.0910 -33.4121 271° West 490 564 43,000  Level FlightAware Transoceanic
01:22PM 56.0939 -33.6564 271° West 490 564 43,000  Level FlightAware Transoceanic
01:23PM 56.0963 -33.9006 271° West 490 564 43,000  Level FlightAware Transoceanic
01:24PM 56.0982 -34.1449 271° West 490 564 43,000  Level FlightAware Transoceanic
01:25PM 56.0997 -34.3892 271° West 490 564 43,000  Level FlightAware Transoceanic
01:26PM 56.1007 -34.6335 270° West 490 564 43,000  Level FlightAware Transoceanic
01:27PM 56.1011 -34.8778 270° West 490 564 43,000  Level FlightAware Transoceanic
01:28PM 56.1011 -35.1222 270° West 490 564 43,000  Level FlightAware Transoceanic
01:29PM 56.1007 -35.3665 270° West 490 564 43,000  Level FlightAware Transoceanic
01:30PM 56.0997 -35.6108 269° West 490 564 43,000  Level FlightAware Transoceanic
01:31PM 56.0982 -35.8551 269° West 490 564 43,000  Level FlightAware Transoceanic
01:32PM 56.0963 -36.0994 269° West 490 564 43,000  Level FlightAware Transoceanic
01:33PM 56.0939 -36.3436 269° West 490 564 43,000  Level FlightAware Transoceanic
01:34PM 56.0910 -36.5879 269° West 490 564 43,000  Level FlightAware Transoceanic
01:35PM 56.0876 -36.8320 268° West 490 564 43,000  Level FlightAware Transoceanic
01:36PM 56.0838 -37.0762 268° West 490 564 43,000  Level FlightAware Transoceanic
01:37PM 56.0794 -37.3203 268° West 490 564 43,000  Level FlightAware Transoceanic
01:38PM 56.0746 -37.5643 268° West 490 564 43,000  Level FlightAware Transoceanic
01:39PM 56.0693 -37.8082 268° West 490 564 43,000  Level FlightAware Transoceanic
01:40PM 56.0635 -38.0521 267° West 490 564 43,000  Level FlightAware Transoceanic
01:41PM 56.0573 -38.2959 267° West 490 564 43,000  Level FlightAware Transoceanic
01:42PM 56.0505 -38.5397 267° West 490 564 43,000  Level FlightAware Transoceanic
01:43PM 56.0433 -38.7833 267° West 490 564 43,000  Level FlightAware Transoceanic
01:44PM 56.0356 -39.0269 267° West 490 564 43,000  Level FlightAware Transoceanic
01:45PM 56.0274 -39.2703 266° West 490 564 43,000  Level FlightAware Transoceanic
01:46PM 56.0188 -39.5137 266° West 490 564 43,000  Level FlightAware Transoceanic
01:47PM 56.0096 -39.7569 266° West 490 564 43,000  Level FlightAware Transoceanic
01:48PM 56.0005 -39.9881 266° West  Level FlightAware Approximate
01:49PM 55.9910 -40.2191 266° West  Level FlightAware Approximate
01:49PM 56.0000 -40.0000 264° West 492 566 43,000  Level ETMS Enhanced Traffic Management System
01:50PM 55.9880 -40.2066 264° West  Level FlightAware Approximate
01:51PM 55.9741 -40.4369 264° West  Level FlightAware Approximate
01:52PM 55.9599 -40.6670 264° West  Level FlightAware Approximate
01:53PM 55.9452 -40.8970 264° West  Level FlightAware Approximate
01:54PM 55.9300 -41.1267 263° West  Level FlightAware Approximate
01:55PM 55.8729 -41.9410 263° West 492 566 43,000  Level FlightAware Transoceanic
01:56PM 55.8549 -42.1827 262° West 492 566 43,000  Level FlightAware Transoceanic
01:57PM 55.8364 -42.4241 262° West 492 566 43,000  Level FlightAware Transoceanic
01:58PM 55.8174 -42.6654 262° West 492 566 43,000  Level FlightAware Transoceanic
01:59PM 55.7980 -42.9063 262° West 492 566 43,000  Level FlightAware Transoceanic
02:00PM 55.7780 -43.1471 262° West 492 566 43,000  Level FlightAware Transoceanic
02:01PM 55.7577 -43.3876 261° West 492 566 43,000  Level FlightAware Transoceanic
02:02PM 55.7368 -43.6278 261° West 492 566 43,000  Level FlightAware Transoceanic
02:03PM 55.7155 -43.8678 261° West 492 566 43,000  Level FlightAware Transoceanic
02:04PM 55.6937 -44.1075 261° West 492 566 43,000  Level FlightAware Transoceanic
02:05PM 55.6714 -44.3470 261° West 492 566 43,000  Level FlightAware Transoceanic
02:06PM 55.6487 -44.5862 260° West 492 566 43,000  Level FlightAware Transoceanic
02:07PM 55.6255 -44.8250 260° West 492 566 43,000  Level FlightAware Transoceanic
02:08PM 55.6019 -45.0636 260° West 492 566 43,000  Level FlightAware Transoceanic
02:09PM 55.5778 -45.3020 260° West 492 566 43,000  Level FlightAware Transoceanic
02:10PM 55.5532 -45.5400 260° West 492 566 43,000  Level FlightAware Transoceanic
02:11PM 55.5282 -45.7777 259° West 492 566 43,000  Level FlightAware Transoceanic
02:12PM 55.5027 -46.0151 259° West 492 566 43,000  Level FlightAware Transoceanic
02:13PM 55.4767 -46.2522 259° West 492 566 43,000  Level FlightAware Transoceanic
02:14PM 55.4503 -46.4890 259° West 492 566 43,000  Level FlightAware Transoceanic
02:15PM 55.4234 -46.7255 259° West 492 566 43,000  Level FlightAware Transoceanic
02:16PM 55.3961 -46.9616 258° West 492 566 43,000  Level FlightAware Transoceanic
02:17PM 55.3683 -47.1975 258° West 492 566 43,000  Level FlightAware Transoceanic
02:18PM 55.3401 -47.4329 258° West 492 566 43,000  Level FlightAware Transoceanic
02:19PM 55.3114 -47.6681 258° West 492 566 43,000  Level FlightAware Transoceanic
02:20PM 55.2823 -47.9029 258° West 492 566 43,000  Level FlightAware Transoceanic
02:21PM 55.2527 -48.1373 257° West 492 566 43,000  Level FlightAware Transoceanic
02:22PM 55.2227 -48.3715 257° West 492 566 43,000  Level FlightAware Transoceanic
02:23PM 55.1922 -48.6052 257° West 492 566 43,000  Level FlightAware Transoceanic
02:24PM 55.1613 -48.8386 257° West 492 566 43,000  Level FlightAware Transoceanic
02:25PM 55.1299 -49.0716 257° West 492 566 43,000  Level FlightAware Transoceanic
02:26PM 55.0981 -49.3043 256° West 492 566 43,000  Level FlightAware Transoceanic
02:27PM 55.0658 -49.5366 256° West 492 566 43,000  Level FlightAware Transoceanic
02:28PM 55.0331 -49.7685 256° West 492 566 43,000  Level FlightAware Transoceanic
02:29PM 55.0018 -49.9878 256° West  Level FlightAware Approximate
02:30PM 54.9699 -50.2066 256° West  Level FlightAware Approximate
02:31PM 54.9617 -50.1891 251° West  Level FlightAware Approximate
02:32PM 55.0000 -50.0000 251° West 485 558 43,000  Level ETMS Enhanced Traffic Management System
02:32PM 54.9181 -50.4015 250° West  Level FlightAware Approximate
02:32PM 55.0000 -50.0000 251° West 485 558 43,000  Level ETMS Enhanced Traffic Management System
02:33PM 54.8742 -50.6135 250° West  Level FlightAware Approximate
02:34PM 54.8299 -50.8251 250° West  Level FlightAware Approximate
02:35PM 54.7853 -51.0361 250° West  Level FlightAware Approximate
02:36PM 54.7403 -51.2467 250° West  Level FlightAware Approximate
02:37PM 54.6950 -51.4569 250° West  Level FlightAware Approximate
02:38PM 54.5809 -51.9761 249° West 485 558 43,000  Level FlightAware Transoceanic
02:39PM 54.5323 -52.1931 249° West 485 558 43,000  Level FlightAware Transoceanic
02:40PM 54.4834 -52.4096 249° West 485 558 43,000  Level FlightAware Transoceanic
02:41PM 54.4341 -52.6256 248° West 485 558 43,000  Level FlightAware Transoceanic
02:42PM 54.3844 -52.8411 248° West 485 558 43,000  Level FlightAware Transoceanic
02:43PM 54.3343 -53.0560 248° West 485 558 43,000  Level FlightAware Transoceanic
02:44PM 54.2839 -53.2704 248° West 485 558 43,000  Level FlightAware Transoceanic
02:45PM 54.2330 -53.4843 248° West 485 558 43,000  Level FlightAware Transoceanic
02:46PM 54.1818 -53.6977 248° West 485 558 43,000  Level FlightAware Transoceanic
02:47PM 54.1302 -53.9105 247° West 485 558 43,000  Level FlightAware Transoceanic
02:48PM 54.0783 -54.1228 247° West 485 558 43,000  Level FlightAware Transoceanic
02:49PM 54.0259 -54.3346 247° West 485 558 43,000  Level FlightAware Transoceanic
02:49PM 54.0333 -54.2500 239° Southwest 480 552 43,000  Level Gander Center
02:50PM 53.9732 -54.5458 247° West 485 558 43,000  Level FlightAware Transoceanic
02:50PM 53.9667 -54.4500 241° Southwest 480 552 43,000  Level Gander Center
02:51PM 53.9201 -54.7565 247° West 485 558 43,000  Level FlightAware Transoceanic
02:51PM 53.9167 -54.6833 250° West 480 552 43,000  Level Gander Center
02:52PM 53.8688 -54.9584 247° West  Level FlightAware Approximate
02:52PM 53.8667 -54.9000 249° West 490 564 43,000  Level Gander Center
02:53PM 53.8171 -55.1598 247° West  Level FlightAware Approximate
02:53PM 53.8000 -55.0833 238° Southwest 480 552 43,000  Level Gander Center
02:54PM 53.8022 -55.1189 239° Southwest  Level FlightAware Approximate
02:54PM 53.7333 -55.2833 241° Southwest 480 552 43,000  Level Gander Center
02:55PM 53.7351 -55.3079 239° Southwest  Level FlightAware Approximate
02:55PM 53.6500 -55.4667 233° Southwest 480 552 43,000  Level Gander Center
02:56PM 53.5833 -55.6500 239° Southwest 490 564 43,000  Level Gander Center
02:57PM 53.5000 -55.8333 233° Southwest 490 564 43,000  Level Gander Center
02:58PM 53.4167 -56.0000 230° Southwest 490 564 43,000  Level Gander Center
02:59PM 53.3333 -56.1833 233° Southwest 480 552 43,000  Level Gander Center
03:00PM 53.2500 -56.3667 233° Southwest 490 564 43,000  Level Gander Center
03:01PM 53.1667 -56.5333 230° Southwest 480 552 43,000  Level Gander Center
03:02PM 53.0833 -56.7167 233° Southwest 480 552 43,000  Level Gander Center
03:03PM 53.0000 -56.8667 227° Southwest 470 541 43,000  Level Gander Center
03:04PM 52.9000 -57.0333 225° Southwest 470 541 43,000  Level Gander Center
03:05PM 52.8333 -57.2167 239° Southwest 460 529 43,000  Level Gander Center
03:06PM 52.7500 -57.3667 227° Southwest 470 541 43,000  Level Gander Center
03:07PM 52.6500 -57.5667 231° Southwest 480 552 43,000  Level Gander Center
03:08PM 52.5667 -57.7000 224° Southwest 470 541 43,000  Level Gander Center
03:09PM 52.5000 -57.8833 239° Southwest 470 541 43,000  Level Gander Center
03:10PM 52.4167 -58.0500 231° Southwest 460 529 43,000  Level Gander Center
03:11PM 52.3167 -58.1833 219° Southwest 460 529 43,000  Level Gander Center
03:12PM 52.2333 -58.3667 233° Southwest 460 529 43,000  Level Gander Center
03:13PM 52.1667 -58.5333 237° Southwest 460 529 43,000  Level Gander Center
03:14PM 52.0833 -58.6667 225° Southwest 460 529 43,000  Level Gander Center
03:15PM 52.0000 -58.8333 231° Southwest 460 529 43,000  Level Gander Center
03:16PM 51.9000 -59.0000 226° Southwest 460 529 43,000  Level Gander Center
03:17PM 51.8167 -59.1500 228° Southwest 460 529 43,000  Level Gander Center
03:18PM 51.7333 -59.3167 231° Southwest 460 529 43,000  Level Gander Center
03:19PM 51.6667 -59.4500 231° Southwest 460 529 43,000  Level Gander Center
03:20PM 51.5833 -59.6167 231° Southwest 450 518 43,000  Level Gander Center
03:21PM 51.5000 -59.7833 231° Southwest 460 529 43,000  Level Gander Center
03:22PM 51.4000 -59.9167 220° Southwest 450 518 43,000  Level Gander Center
03:23PM 51.3167 -60.0833 231° Southwest 450 518 43,000  Level Gander Center
03:24PM 51.2333 -60.2167 225° Southwest 450 518 43,000  Level Gander Center
03:25PM 51.1500 -60.3833 231° Southwest 450 518 43,000  Level Gander Center
03:26PM 51.0667 -60.5167 225° Southwest 450 518 43,000  Level Gander Center
03:27PM 50.9833 -60.6667 229° Southwest 450 518 43,000  Level Gander Center
03:28PM 50.9000 -60.8333 232° Southwest 450 518 43,000  Level Gander Center
03:29PM 50.8167 -60.9667 225° Southwest 450 518 43,000  Level Gander Center
03:30PM 50.7333 -61.1167 229° Southwest 450 518 43,000  Level Gander Center
03:31PM 50.6500 -61.2500 225° Southwest 450 518 43,000  Level Gander Center
03:32PM 50.5667 -61.4167 232° Southwest 450 518 43,000  Level Gander Center
03:33PM 50.4833 -61.5500 226° Southwest 440 506 43,000  Level Gander Center
03:34PM 50.3833 -61.7000 224° Southwest 450 518 43,000  Level Gander Center
03:35PM 50.3167 -61.8333 232° Southwest 450 518 43,000  Level Gander Center
03:36PM 50.2167 -61.9833 224° Southwest 450 518 43,000  Level Gander Center
03:37PM 50.1333 -62.1167 226° Southwest 450 518 43,000  Level Gander Center
03:38PM 50.0500 -62.2667 229° Southwest 460 529 43,000  Level Gander Center
03:39PM 49.9667 -62.4000 226° Southwest 450 518 43,000  Level Gander Center
03:40PM 49.8833 -62.5500 229° Southwest 430 495 43,000  Level Gander Center
03:41PM 49.8000 -62.6833 226° Southwest 440 506 43,000  Level Gander Center
03:42PM 49.7000 -62.8000 217° Southwest 440 506 43,000  Level Gander Center
03:43PM 49.6167 -62.9667 232° Southwest 450 518 43,000  Level Gander Center
03:44PM 49.5333 -63.1167 229° Southwest 450 518 43,000  Level Gander Center
03:45PM 49.4500 -63.2333 222° Southwest 460 529 43,000  Level Gander Center
03:46PM 49.3667 -63.3833 230° Southwest 460 529 43,000  Level Gander Center
03:47PM 49.2667 -63.5167 221° Southwest 460 529 43,000  Level Gander Center
03:48PM 49.1833 -63.6667 230° Southwest 460 529 43,000  Level Gander Center
03:49PM 49.0833 -63.8167 225° Southwest 460 529 43,000  Level Gander Center
03:50PM 49.0000 -63.9333 223° Southwest 460 529 43,000  Level Gander Center
03:52PM 48.8667 -64.1500 227° Southwest 450 518 43,000  Level Moncton Center
03:53PM 48.7833 -64.2667 223° Southwest 440 506 43,000  Level Moncton Center
03:54PM 48.6833 -64.4000 221° Southwest 440 506 43,000  Level Moncton Center
03:55PM 48.6000 -64.5500 230° Southwest 440 506 43,000  Level Moncton Center
03:56PM 48.5167 -64.6833 227° Southwest 440 506 43,000  Level Moncton Center
03:57PM 48.4333 -64.8000 223° Southwest 440 506 43,000  Level Moncton Center
03:58PM 48.3500 -64.9333 227° Southwest 440 506 43,000  Level Moncton Center
03:58PM 48.3000 -65.0000 222° Southwest 440 506 43,000  Level Gander Center
03:59PM 48.2167 -65.1167 223° Southwest 450 518 43,000  Level Gander Center
04:00PM 48.1167 -65.2667 225° Southwest 450 518 43,000  Level Gander Center
04:01PM 48.0167 -65.4000 222° Southwest 450 518 43,000  Level Gander Center
04:02PM 47.9500 -65.5167 230° Southwest 450 518 43,000  Level Gander Center
04:03PM 47.8500 -65.6667 225° Southwest 450 518 43,000  Level Gander Center
04:04PM 47.7500 -65.7833 218° Southwest 450 518 43,000  Level Gander Center
04:05PM 47.6667 -65.9167 227° Southwest 450 518 43,000  Level Gander Center
04:06PM 47.5833 -66.0333 223° Southwest 450 518 43,000  Level Gander Center
04:07PM 47.4833 -66.1833 225° Southwest 460 529 43,000  Level Gander Center
04:08PM 47.4000 -66.3000 223° Southwest 450 518 43,000  Level Gander Center
04:09PM 47.3000 -66.4333 222° Southwest 450 518 43,000  Level Gander Center
04:10PM 47.2167 -66.5667 227° Southwest 460 529 43,000  Level Gander Center
04:11PM 47.1333 -66.6833 224° Southwest 450 518 43,000 -60 Level Gander Center
04:12PM 47.0439 -66.8081 224° Southwest 459 528 42,900 60 Descending Boston Center
04:13PM 46.9578 -66.9264 223° Southwest 448 516 43,200 600 Climbing Boston Center
04:14PM 46.8719 -67.0506 225° Southwest 436 502 44,200 720 Climbing Boston Center
04:15PM 46.7878 -67.1708 224° Southwest 430 495 44,700 360 Climbing Boston Center
04:16PM 46.7042 -67.3028 227° Southwest 435 501 45,000 120 Climbing Boston Center
04:17PM 46.6200 -67.4314 226° Southwest 440 506 45,000  Level Boston Center
04:18PM 46.5358 -67.5597 226° Southwest 447 514 45,000  Level Boston Center
04:19PM 46.4639 -67.6836 230° Southwest 447 514 45,000  Level Boston Center
04:20PM 46.3817 -67.8139 228° Southwest 447 514 45,000  Level Boston Center
04:21PM 46.3033 -67.9436 229° Southwest 441 507 45,000  Level Boston Center
04:23PM 46.2275 -68.0817 232° Southwest 435 501 45,000  Level Boston Center
04:24PM 46.1375 -68.2444 231° Southwest 435 501 45,000  Level Boston Center
04:25PM 46.0653 -68.3844 233° Southwest 441 507 45,000  Level Boston Center
04:26PM 45.9731 -68.5464 231° Southwest 449 517 45,000  Level Boston Center
04:27PM 45.8789 -68.6633 221° Southwest 443 510 45,000  Level Boston Center
04:28PM 45.7672 -68.7481 208° Southwest 450 518 45,000 -660 Level Boston Center
04:29PM 45.6550 -68.8236 205° Southwest 450 518 43,700 -1,380 Descending Boston Center
04:30PM 45.5383 -68.8931 203° Southwest 457 526 42,300 -1,500 Descending Boston Center
04:31PM 45.4175 -68.9686 204° Southwest 462 532 40,800 -1,620 Descending Boston Center
04:32PM 45.2989 -69.0436 204° Southwest 472 543 39,100 -1,980 Descending Boston Center
04:33PM 45.1803 -69.1153 203° Southwest 472 543 36,900 -2,220 Descending Boston Center
04:34PM 45.0614 -69.1897 204° Southwest 472 543 34,700 -2,220 Descending Boston Center
04:35PM 44.9447 -69.2608 203° Southwest 472 543 32,500 -2,340 Descending Boston Center
04:36PM 44.8114 -69.3383 202° Southwest 472 543 30,100 -2,520 Descending Boston Center
04:37PM 44.6883 -69.4150 204° Southwest 477 549 27,500 -2,580 Descending Boston Center
04:38PM 44.5736 -69.4878 204° Southwest 472 543 25,000 -2,580 Descending Boston Center
04:39PM 44.4608 -69.5575 204° Southwest 467 537 22,400 -2,280 Descending Boston Center
04:40PM 44.3519 -69.6239 204° Southwest 449 517 20,000 -2,340 Descending Boston Center
04:41PM 44.2328 -69.6989 204° Southwest 417 480 16,800 -3,060 Descending Boston Center
04:42PM 44.1197 -69.7650 203° Southwest 373 429 13,300 -2,940 Descending Boston Center
04:43PM 44.0353 -69.8119 202° Southwest 353 406 11,000 -2,220 Descending Boston Center
04:44PM 43.9614 -69.8586 204° Southwest 304 350 8,900 -1,980 Descending Boston Center
04:45PM 43.8894 -69.8992 202° Southwest 286 329 7,100 -1,500 Descending Boston Center
04:46PM 43.8278 -69.9364 204° Southwest 281 323 5,900 -1,500 Descending Boston Center
04:47PM 43.7619 -69.9764 204° Southwest 261 300 4,100 -900 Descending Boston Center
04:48PM 43.7186 -70.0011 202° Southwest 213 245 4,100 -120 Level Boston Center
04:49PM 43.6692 -70.0289 202° Southwest 183 211 3,900 -540 Descending Boston Center
04:50PM 43.6386 -70.0647 220° Southwest 165 190 3,100 -660 Descending Boston Center
04:51PM 43.6336 -70.1164 262° West 137 158 2,600 -540 Descending Boston Center
04:52PM 43.6342 -70.1567 271° West 125 144 2,100 -600 Descending Boston Center
04:53PM 43.6394 -70.2053 279° West 120 138 1,400 -600 Descending Boston Center
04:54PM 43.6403 -70.2425 272° West 120 138 900 -540 Descending Boston Center
04:56PM 43.6333 -70.3000 270° West  Level FlightAware Approximate
05:03PM 43.6456 -70.3086 270° West  Level Estimated
05:04PM 43.6456 -70.3086 270° West  Level Estimated
05:05PM 43.6456 -70.3086 270° West  Level Estimated